createdAt,value
2019-04-07T00:03:59.795Z,94178.00
2019-04-07T00:09:29.314Z,94167.00
2019-04-07T00:14:58.709Z,94163.00
2019-04-07T00:20:28.001Z,94178.00
2019-04-07T00:25:57.769Z,94165.00
2019-04-07T00:31:27.713Z,94177.00
2019-04-07T00:36:57.250Z,94168.00
2019-04-07T00:42:27.377Z,94179.00
2019-04-07T00:47:56.911Z,94171.00
2019-04-07T00:53:26.485Z,94173.00
2019-04-07T00:58:56.268Z,94172.00
2019-04-07T01:04:26.470Z,94165.00
2019-04-07T01:09:55.911Z,94157.00
2019-04-07T01:15:25.366Z,94166.00
2019-04-07T01:20:54.668Z,94161.00
2019-04-07T01:26:24.148Z,94161.00
2019-04-07T01:31:53.457Z,94168.00
2019-04-07T01:37:22.781Z,94178.00
2019-04-07T01:43:09.219Z,94173.00
2019-04-07T01:48:45.709Z,94176.00
2019-04-07T01:54:22.981Z,94160.00
2019-04-07T02:00:11.141Z,94170.00
2019-04-07T02:05:56.295Z,94161.00
2019-04-07T02:11:23.892Z,94161.00
2019-04-07T02:16:55.369Z,94167.00
2019-04-07T02:22:26.582Z,94172.00
2019-04-07T02:27:57.554Z,94179.00
2019-04-07T02:33:28.851Z,94168.00
2019-04-07T02:39:00.087Z,94169.00
2019-04-07T02:44:37.048Z,94173.00
2019-04-07T02:50:27.295Z,94177.00
2019-04-07T02:55:58.406Z,94181.00
2019-04-07T03:01:31.232Z,94173.00
2019-04-07T03:07:02.720Z,94190.00
2019-04-07T03:12:34.178Z,94193.00
2019-04-07T03:18:05.404Z,94180.00
2019-04-07T03:23:54.763Z,94181.00
2019-04-07T03:29:26.877Z,94190.00
2019-04-07T03:35:19.817Z,94185.00
2019-04-07T03:40:49.800Z,94184.00
2019-04-07T03:46:21.605Z,94193.00
2019-04-07T03:51:55.957Z,94198.00
2019-04-07T03:57:36.463Z,94198.00
2019-04-07T04:03:07.567Z,94195.00
2019-04-07T04:08:41.775Z,94200.00
2019-04-07T04:14:13.391Z,94207.00
2019-04-07T04:19:42.853Z,94208.00
2019-04-07T04:25:12.679Z,94210.00
2019-04-07T04:30:42.835Z,94211.00
2019-04-07T04:36:12.623Z,94211.00
2019-04-07T04:41:42.911Z,94226.00
2019-04-07T04:47:12.607Z,94214.00
2019-04-07T04:52:42.758Z,94229.00
2019-04-07T04:58:12.683Z,94233.00
2019-04-07T05:03:42.835Z,94242.00
2019-04-07T05:09:12.372Z,94247.00
2019-04-07T05:14:42.115Z,94248.00
2019-04-07T05:20:13.440Z,94259.00
2019-04-07T05:25:42.873Z,94259.00
2019-04-07T05:31:12.357Z,94251.00
2019-04-07T05:36:42.196Z,94251.00
2019-04-07T05:42:11.621Z,94258.00
2019-04-07T05:47:47.795Z,94254.00
2019-04-07T05:53:14.723Z,94253.00
2019-04-07T05:58:43.900Z,94245.00
2019-04-07T06:04:18.188Z,94264.00
2019-04-07T06:09:50.075Z,94267.00
2019-04-07T06:15:21.612Z,94263.00
2019-04-07T06:20:48.529Z,94263.00
2019-04-07T06:26:20.926Z,94263.00
2019-04-07T06:31:50.237Z,94268.00
2019-04-07T06:37:19.931Z,94269.00
2019-04-07T06:42:49.957Z,94268.00
2019-04-07T06:48:19.914Z,94287.00
2019-04-07T06:53:51.486Z,94297.00
2019-04-07T06:59:28.318Z,94290.00
2019-04-07T07:05:13.710Z,94310.00
2019-04-07T07:10:48.365Z,94306.00
2019-04-07T07:16:36.181Z,94313.00
2019-04-07T07:22:17.419Z,94319.00
2019-04-07T07:27:47.816Z,94307.00
2019-04-07T07:33:17.980Z,94314.00
2019-04-07T07:38:57.518Z,94317.00
2019-04-07T07:44:18.832Z,94315.00
2019-04-07T07:49:48.296Z,94326.00
2019-04-07T07:55:17.770Z,94324.00
2019-04-07T08:00:47.586Z,94335.00
2019-04-07T08:06:17.329Z,94333.00
2019-04-07T08:11:47.804Z,94346.00
2019-04-07T08:17:18.223Z,94347.00
2019-04-07T08:22:48.235Z,94354.00
2019-04-07T08:28:21.484Z,94354.00
2019-04-07T08:33:51.845Z,94357.00
2019-04-07T08:39:26.681Z,94352.00
2019-04-07T08:44:57.236Z,94361.00
2019-04-07T08:50:27.649Z,94355.00
2019-04-07T08:55:57.004Z,94362.00
2019-04-07T09:01:28.814Z,94359.00
2019-04-07T09:07:00.700Z,94368.00
2019-04-07T09:12:31.374Z,94368.00
2019-04-07T09:18:14.157Z,94365.00
2019-04-07T09:23:52.197Z,94365.00
2019-04-07T09:29:28.291Z,94363.00
2019-04-07T09:35:12.403Z,94366.00
2019-04-07T09:40:48.412Z,94375.00
2019-04-07T09:46:20.225Z,94376.00
2019-04-07T09:52:00.971Z,94370.00
2019-04-07T09:57:39.795Z,94368.00
2019-04-07T10:03:19.665Z,94393.00
2019-04-07T10:09:07.977Z,94386.00
2019-04-07T10:14:54.106Z,94392.00
2019-04-07T10:20:43.232Z,94389.00
2019-04-07T10:26:31.395Z,94383.00
2019-04-07T10:32:03.598Z,94391.00
2019-04-07T10:37:36.237Z,94389.00
2019-04-07T10:43:07.334Z,94379.00
2019-04-07T10:48:48.614Z,94380.00
2019-04-07T10:54:19.966Z,94387.00
2019-04-07T11:00:07.567Z,94387.00
2019-04-07T11:05:42.690Z,94382.00
2019-04-07T11:11:30.393Z,94384.00
2019-04-07T11:17:17.537Z,94383.00
2019-04-07T11:22:58.531Z,94389.00
2019-04-07T11:28:30.630Z,94374.00
2019-04-07T11:34:01.679Z,94381.00
2019-04-07T11:39:48.021Z,94370.00
2019-04-07T11:45:31.461Z,94383.00
2019-04-07T11:51:09.520Z,94380.00
2019-04-07T11:56:47.202Z,94392.00
2019-04-07T12:02:19.731Z,94392.00
2019-04-07T12:08:08.260Z,94377.00
2019-04-07T12:13:51.056Z,94380.00
2019-04-07T12:19:23.837Z,94375.00
2019-04-07T12:24:59.996Z,94368.00
2019-04-07T12:30:37.932Z,94364.00
2019-04-07T12:36:15.846Z,94368.00
2019-04-07T12:42:03.892Z,94373.00
2019-04-07T12:47:32.918Z,94368.00
2019-04-07T12:53:13.510Z,94375.00
2019-04-07T12:58:51.589Z,94361.00
2019-04-07T13:04:39.681Z,94367.00
2019-04-07T13:10:14.305Z,94359.00
2019-04-07T13:15:52.122Z,94355.00
2019-04-07T13:21:25.005Z,94341.00
2019-04-07T13:26:56.303Z,94342.00
2019-04-07T13:32:39.403Z,94339.00
2019-04-07T13:38:07.689Z,94353.00
2019-04-07T13:43:44.845Z,94356.00
2019-04-07T13:49:16.148Z,94349.00
2019-04-07T13:55:04.623Z,94353.00
2019-04-07T14:00:38.790Z,94360.00
2019-04-07T14:06:16.415Z,94368.00
2019-04-07T14:12:02.065Z,94366.00
2019-04-07T14:17:29.774Z,94380.00
2019-04-07T14:23:03.215Z,94386.00
2019-04-07T14:28:46.145Z,94376.00
2019-04-07T14:34:35.267Z,94359.00
2019-04-07T14:40:11.873Z,94381.00
2019-04-07T14:45:48.452Z,94382.00
2019-04-07T14:51:18.403Z,94335.00
2019-04-07T14:56:49.663Z,94335.00
2019-04-07T15:02:19.620Z,94330.00
2019-04-07T15:07:50.690Z,94328.00
2019-04-07T15:13:25.757Z,94333.00
2019-04-07T15:18:53.431Z,94386.00
2019-04-07T15:24:23.988Z,94383.00
2019-04-07T15:29:53.429Z,94374.00
2019-04-07T15:35:26.481Z,94374.00
2019-04-07T15:40:58.565Z,94393.00
2019-04-07T15:46:27.275Z,94402.00
2019-04-07T15:52:08.185Z,94397.00
2019-04-07T15:57:37.995Z,94399.00
2019-04-07T16:03:08.500Z,94408.00
2019-04-07T16:08:38.346Z,94414.00
2019-04-07T16:14:12.509Z,94405.00
2019-04-07T16:19:43.104Z,94412.00
2019-04-07T16:25:11.737Z,94416.00
2019-04-07T16:30:41.263Z,94418.00
2019-04-07T16:36:10.893Z,94424.00
2019-04-07T16:41:44.180Z,94436.00
2019-04-07T16:47:19.272Z,94440.00
2019-04-07T16:52:44.292Z,94442.00
2019-04-07T16:58:15.903Z,94443.00
2019-04-07T17:03:46.392Z,94429.00
2019-04-07T17:09:23.077Z,94442.00
2019-04-07T17:14:49.992Z,94450.00
2019-04-07T17:20:20.040Z,94449.00
2019-04-07T17:25:50.178Z,94454.00
2019-04-07T17:31:20.824Z,94460.00
2019-04-07T17:36:55.568Z,94462.00
2019-04-07T17:42:25.879Z,94464.00
2019-04-07T17:48:06.894Z,94467.00
2019-04-07T17:53:55.986Z,94473.00
2019-04-07T17:59:26.954Z,94479.00
2019-04-07T18:04:59.106Z,94492.00
2019-04-07T18:10:39.807Z,94500.00
2019-04-07T18:16:12.333Z,94508.00
2019-04-07T18:21:53.800Z,94508.00
2019-04-07T18:27:26.522Z,94508.00
2019-04-07T18:33:12.943Z,94517.00
2019-04-07T18:38:58.222Z,94522.00
2019-04-07T18:44:40.368Z,94523.00
2019-04-07T18:50:20.110Z,94533.00
2019-04-07T18:55:59.981Z,94542.00
2019-04-07T19:01:31.962Z,94545.00
2019-04-07T19:07:19.326Z,94554.00
2019-04-07T19:13:14.206Z,94566.00
2019-04-07T19:18:43.577Z,94562.00
2019-04-07T19:24:21.356Z,94566.00
2019-04-07T19:29:58.005Z,94575.00
2019-04-07T19:35:29.728Z,94580.00
2019-04-07T19:41:19.935Z,94573.00
2019-04-07T19:46:51.199Z,94578.00
2019-04-07T19:52:29.496Z,94570.00
2019-04-07T19:58:04.148Z,94572.00
2019-04-07T20:03:47.580Z,94572.00
2019-04-07T20:09:55.520Z,94589.00
2019-04-07T20:15:29.698Z,94582.00
2019-04-07T20:21:00.818Z,94596.00
2019-04-07T20:26:39.088Z,94609.00
2019-04-07T20:32:11.058Z,94610.00
2019-04-07T20:37:42.938Z,94613.00
2019-04-07T20:43:17.699Z,94616.00
2019-04-07T20:48:52.637Z,94629.00
2019-04-07T20:54:38.949Z,94643.00
2019-04-07T21:00:28.582Z,94645.00
2019-04-07T21:06:16.756Z,94653.00
2019-04-07T21:11:57.335Z,94649.00
2019-04-07T21:17:31.632Z,94645.00
2019-04-07T21:23:17.328Z,94635.00
2019-04-07T21:28:48.342Z,94639.00
2019-04-07T21:34:19.670Z,94632.00
2019-04-07T21:40:05.385Z,94644.00
2019-04-07T21:46:07.981Z,94641.00
2019-04-07T21:51:39.860Z,94643.00
2019-04-07T21:57:23.516Z,94640.00
2019-04-07T22:02:54.978Z,94649.00
2019-04-07T22:08:26.377Z,94658.00
2019-04-07T22:13:55.866Z,94676.00
2019-04-07T22:19:25.579Z,94670.00
2019-04-07T22:24:57.987Z,94668.00
2019-04-07T22:30:27.830Z,94662.00
2019-04-07T22:35:57.575Z,94663.00
2019-04-07T22:41:27.040Z,94659.00
2019-04-07T22:46:58.647Z,94664.00
2019-04-07T22:52:27.933Z,94680.00
2019-04-07T22:57:57.857Z,94677.00
2019-04-07T23:03:27.525Z,94673.00
2019-04-07T23:08:57.364Z,94668.00
2019-04-07T23:14:27.551Z,94669.00
2019-04-07T23:19:57.073Z,94679.00
2019-04-07T23:25:26.560Z,94675.00
2019-04-07T23:30:56.897Z,94674.00
2019-04-07T23:36:26.410Z,94677.00
2019-04-07T23:41:55.736Z,94688.00
2019-04-07T23:47:27.046Z,94703.00
2019-04-07T23:53:01.166Z,94702.00
2019-04-07T23:58:31.549Z,94700.00
